createdAt,value
2023-01-22T00:01:12.426Z,85.38
2023-01-22T00:03:40.951Z,85.44
2023-01-22T00:06:09.821Z,85.46
2023-01-22T00:08:37.950Z,85.44
2023-01-22T00:11:05.571Z,85.62
2023-01-22T00:13:34.732Z,85.67
2023-01-22T00:16:02.478Z,85.17
2023-01-22T00:18:30.083Z,85.26
2023-01-22T00:20:58.064Z,85.33
2023-01-22T00:23:25.702Z,85.70
2023-01-22T00:26:06.744Z,85.66
2023-01-22T00:28:34.313Z,85.24
2023-01-22T00:31:05.243Z,85.35
2023-01-22T00:33:33.444Z,85.28
2023-01-22T00:36:15.045Z,85.13
2023-01-22T00:38:43.232Z,85.33
2023-01-22T00:41:12.768Z,85.23
2023-01-22T00:43:40.744Z,85.31
2023-01-22T00:46:11.225Z,85.46
2023-01-22T00:48:38.993Z,85.42
2023-01-22T00:51:12.977Z,85.36
2023-01-22T00:53:42.242Z,85.57
2023-01-22T00:56:11.819Z,85.64
2023-01-22T00:58:40.013Z,85.58
2023-01-22T01:01:08.377Z,85.67
2023-01-22T01:03:37.177Z,85.38
2023-01-22T01:06:18.164Z,85.61
2023-01-22T01:08:47.463Z,85.77
2023-01-22T01:11:25.794Z,85.45
2023-01-22T01:13:53.632Z,85.46
2023-01-22T01:16:26.058Z,85.43
2023-01-22T01:18:53.519Z,85.48
2023-01-22T01:21:21.392Z,85.51
2023-01-22T01:23:49.133Z,85.42
2023-01-22T01:26:17.127Z,85.40
2023-01-22T01:28:46.174Z,85.54
2023-01-22T01:31:16.676Z,85.76
2023-01-22T01:33:45.286Z,85.79
2023-01-22T01:36:21.287Z,85.47
2023-01-22T01:38:55.232Z,85.53
2023-01-22T01:41:26.007Z,85.27
2023-01-22T01:44:14.852Z,85.58
2023-01-22T01:46:55.853Z,85.57
2023-01-22T01:49:30.979Z,85.59
2023-01-22T01:52:06.416Z,85.74
2023-01-22T01:54:34.143Z,85.52
2023-01-22T01:57:08.798Z,85.94
2023-01-22T01:59:37.463Z,85.79
2023-01-22T02:02:05.462Z,85.78
2023-01-22T02:04:33.249Z,85.65
2023-01-22T02:07:01.660Z,85.76
2023-01-22T02:09:29.837Z,85.72
2023-01-22T02:11:57.215Z,85.74
2023-01-22T02:14:32.138Z,85.59
2023-01-22T02:17:07.330Z,85.67
2023-01-22T02:19:35.103Z,85.55
2023-01-22T02:22:03.123Z,85.65
2023-01-22T02:24:31.325Z,86.00
2023-01-22T02:26:58.839Z,85.78
2023-01-22T02:29:26.786Z,85.59
2023-01-22T02:31:54.511Z,85.80
2023-01-22T02:34:25.168Z,85.66
2023-01-22T02:36:54.032Z,85.76
2023-01-22T02:39:21.448Z,85.62
2023-01-22T02:41:49.292Z,85.51
2023-01-22T02:44:16.654Z,85.78
2023-01-22T02:46:45.114Z,86.00
2023-01-22T02:49:12.946Z,85.92
2023-01-22T02:51:40.319Z,85.70
2023-01-22T02:54:07.715Z,85.86
2023-01-22T02:56:35.128Z,85.74
2023-01-22T02:59:04.993Z,86.08
2023-01-22T03:01:32.543Z,85.95
2023-01-22T03:04:13.306Z,85.68
2023-01-22T03:06:44.812Z,85.74
2023-01-22T03:09:15.726Z,85.77
2023-01-22T03:11:44.911Z,85.79
2023-01-22T03:14:34.535Z,85.71
2023-01-22T03:17:22.448Z,85.89
2023-01-22T03:20:10.355Z,86.12
2023-01-22T03:22:38.040Z,85.72
2023-01-22T03:25:05.970Z,85.92
2023-01-22T03:27:33.410Z,85.66
2023-01-22T03:30:01.286Z,85.73
2023-01-22T03:32:33.319Z,85.93
2023-01-22T03:35:01.633Z,85.79
2023-01-22T03:37:35.979Z,85.94
2023-01-22T03:40:04.634Z,85.93
2023-01-22T03:42:36.040Z,85.92
2023-01-22T03:45:03.576Z,86.02
2023-01-22T03:47:32.059Z,86.06
2023-01-22T03:50:03.028Z,85.98
2023-01-22T03:52:30.700Z,85.88
2023-01-22T03:54:58.266Z,85.95
2023-01-22T03:57:25.679Z,85.91
2023-01-22T03:59:53.303Z,85.92
2023-01-22T04:02:20.868Z,85.84
2023-01-22T04:05:00.100Z,86.00
2023-01-22T04:07:28.593Z,85.87
2023-01-22T04:09:55.787Z,85.94
2023-01-22T04:12:24.041Z,86.15
2023-01-22T04:14:52.079Z,86.14
2023-01-22T04:17:19.768Z,85.98
2023-01-22T04:19:51.315Z,85.76
2023-01-22T04:22:37.527Z,85.83
2023-01-22T04:25:06.506Z,85.88
2023-01-22T04:27:37.281Z,85.87
2023-01-22T04:30:08.858Z,85.83
2023-01-22T04:32:36.560Z,85.95
2023-01-22T04:35:24.457Z,85.82
2023-01-22T04:37:58.224Z,85.98
2023-01-22T04:40:26.335Z,85.84
2023-01-22T04:42:54.783Z,86.17
2023-01-22T04:45:22.471Z,85.92
2023-01-22T04:47:50.044Z,85.93
2023-01-22T04:50:22.906Z,85.87
2023-01-22T04:52:51.863Z,85.91
2023-01-22T04:55:20.500Z,86.08
2023-01-22T04:58:00.759Z,85.98
2023-01-22T05:00:30.316Z,86.06
2023-01-22T05:03:01.259Z,85.93
2023-01-22T05:05:31.250Z,85.93
2023-01-22T05:07:58.727Z,85.74
2023-01-22T05:10:26.335Z,86.09
2023-01-22T05:12:54.589Z,85.81
2023-01-22T05:15:24.987Z,85.83
2023-01-22T05:17:56.414Z,85.84
2023-01-22T05:20:25.181Z,86.19
2023-01-22T05:22:53.098Z,86.23
2023-01-22T05:25:24.725Z,86.15
2023-01-22T05:27:52.167Z,85.99
2023-01-22T05:30:42.692Z,86.06
2023-01-22T05:33:18.327Z,85.89
2023-01-22T05:35:46.086Z,86.05
2023-01-22T05:38:14.275Z,86.31
2023-01-22T05:40:41.592Z,86.23
2023-01-22T05:43:09.806Z,86.13
2023-01-22T05:45:37.448Z,86.06
2023-01-22T05:48:44.561Z,86.25
2023-01-22T05:51:15.758Z,86.24
2023-01-22T05:53:43.034Z,86.20
2023-01-22T05:56:11.320Z,86.12
2023-01-22T05:58:39.803Z,86.04
2023-01-22T06:01:08.145Z,85.97
2023-01-22T06:03:41.191Z,86.22
2023-01-22T06:06:11.942Z,86.37
2023-01-22T06:08:39.338Z,86.21
2023-01-22T06:11:12.030Z,86.35
2023-01-22T06:13:39.973Z,86.13
2023-01-22T06:16:17.193Z,86.03
2023-01-22T06:18:58.221Z,86.32
2023-01-22T06:21:27.847Z,86.61
2023-01-22T06:23:55.129Z,86.39
2023-01-22T06:26:22.592Z,86.30
2023-01-22T06:28:50.428Z,86.06
2023-01-22T06:31:17.686Z,86.22
2023-01-22T06:33:47.209Z,85.98
2023-01-22T06:36:15.618Z,86.04
2023-01-22T06:38:43.056Z,85.99
2023-01-22T06:41:14.034Z,85.99
2023-01-22T06:43:42.659Z,86.34
2023-01-22T06:46:10.041Z,86.09
2023-01-22T06:49:04.580Z,86.12
2023-01-22T06:51:32.748Z,86.06
2023-01-22T06:53:59.977Z,86.20
2023-01-22T06:56:28.301Z,86.19
2023-01-22T06:58:56.584Z,86.25
2023-01-22T07:01:25.665Z,86.25
2023-01-22T07:03:54.158Z,86.15
2023-01-22T07:06:21.485Z,86.05
2023-01-22T07:08:49.229Z,86.42
2023-01-22T07:11:16.951Z,86.21
2023-01-22T07:13:44.611Z,86.36
2023-01-22T07:16:12.518Z,86.16
2023-01-22T07:18:40.200Z,86.26
2023-01-22T07:21:07.932Z,86.54
2023-01-22T07:23:35.121Z,86.34
2023-01-22T07:26:03.051Z,86.58
2023-01-22T07:28:30.727Z,86.06
2023-01-22T07:30:58.044Z,86.21
2023-01-22T07:33:26.267Z,86.17
2023-01-22T07:35:56.046Z,86.61
2023-01-22T07:38:26.615Z,86.26
2023-01-22T07:40:59.707Z,86.42
2023-01-22T07:43:27.850Z,86.28
2023-01-22T07:45:57.630Z,86.25
2023-01-22T07:48:25.003Z,86.33
2023-01-22T07:50:52.374Z,86.40
2023-01-22T07:53:20.019Z,86.21
2023-01-22T07:55:47.278Z,86.42
2023-01-22T07:58:15.186Z,86.35
2023-01-22T08:00:42.858Z,86.41
2023-01-22T08:03:10.608Z,86.33
2023-01-22T08:05:42.570Z,86.14
2023-01-22T08:08:14.928Z,85.97
2023-01-22T08:10:43.493Z,86.10
2023-01-22T08:13:10.731Z,86.11
2023-01-22T08:15:38.441Z,86.20
2023-01-22T08:18:07.137Z,86.59
2023-01-22T08:20:34.278Z,86.57
2023-01-22T08:23:01.964Z,86.43
2023-01-22T08:25:29.615Z,86.43
2023-01-22T08:28:05.096Z,86.65
2023-01-22T08:30:38.466Z,86.54
2023-01-22T08:33:12.856Z,86.51
2023-01-22T08:35:40.480Z,86.32
2023-01-22T08:38:07.760Z,86.44
2023-01-22T08:40:37.740Z,86.23
2023-01-22T08:43:06.035Z,86.01
2023-01-22T08:45:33.828Z,86.35
2023-01-22T08:48:01.497Z,86.54
2023-01-22T08:50:29.442Z,86.32
2023-01-22T08:52:57.705Z,86.23
2023-01-22T08:55:27.287Z,86.47
2023-01-22T08:57:55.975Z,86.52
2023-01-22T09:00:24.565Z,86.39
2023-01-22T09:02:56.259Z,86.53
2023-01-22T09:05:23.889Z,86.37
2023-01-22T09:07:51.528Z,85.98
2023-01-22T09:10:21.693Z,86.32
2023-01-22T09:12:49.892Z,86.37
2023-01-22T09:15:17.255Z,86.27
2023-01-22T09:17:44.731Z,86.36
2023-01-22T09:20:12.533Z,86.28
2023-01-22T09:22:39.731Z,86.35
2023-01-22T09:25:08.358Z,86.40
2023-01-22T09:27:36.072Z,86.47
2023-01-22T09:30:03.957Z,86.36
2023-01-22T09:32:31.837Z,86.47
2023-01-22T09:34:59.886Z,86.32
2023-01-22T09:37:27.467Z,86.28
2023-01-22T09:39:55.549Z,86.37
2023-01-22T09:42:30.361Z,86.66
2023-01-22T09:45:03.028Z,86.33
2023-01-22T09:47:49.160Z,86.21
2023-01-22T09:50:32.888Z,86.31
2023-01-22T09:53:04.899Z,86.36
2023-01-22T09:55:40.461Z,86.27
2023-01-22T09:58:14.257Z,86.49
2023-01-22T10:00:48.249Z,86.39
2023-01-22T10:03:32.082Z,86.48
2023-01-22T10:06:14.465Z,86.62
2023-01-22T10:09:04.851Z,86.31
2023-01-22T10:11:32.414Z,86.24
2023-01-22T10:14:01.989Z,86.40
2023-01-22T10:16:29.330Z,86.38
2023-01-22T10:19:24.604Z,86.44
2023-01-22T10:21:58.280Z,86.49
2023-01-22T10:24:25.808Z,86.70
2023-01-22T10:26:55.092Z,86.46
2023-01-22T10:29:32.377Z,86.35
2023-01-22T10:32:02.072Z,86.29
2023-01-22T10:34:33.350Z,86.55
2023-01-22T10:37:15.009Z,86.37
2023-01-22T10:39:44.685Z,86.75
2023-01-22T10:42:30.606Z,86.70
2023-01-22T10:45:14.652Z,86.33
2023-01-22T10:47:42.535Z,86.45
2023-01-22T10:50:15.628Z,86.55
2023-01-22T10:52:56.174Z,86.45
2023-01-22T10:55:27.748Z,86.41
2023-01-22T10:58:07.686Z,86.67
2023-01-22T11:00:50.465Z,86.48
2023-01-22T11:03:24.328Z,86.33
2023-01-22T11:05:58.045Z,86.50
2023-01-22T11:08:30.562Z,86.65
2023-01-22T11:11:04.131Z,86.48
2023-01-22T11:13:55.096Z,86.70
2023-01-22T11:16:24.754Z,86.58
2023-01-22T11:19:05.870Z,86.65
2023-01-22T11:21:55.893Z,86.84
2023-01-22T11:24:33.863Z,86.70
2023-01-22T11:27:38.669Z,86.82
2023-01-22T11:30:40.480Z,86.68
2023-01-22T11:33:32.183Z,86.56
2023-01-22T11:36:40.834Z,86.75
2023-01-22T11:39:28.757Z,86.83
2023-01-22T11:42:05.632Z,86.76
2023-01-22T11:45:00.690Z,86.89
2023-01-22T11:47:37.217Z,86.71
2023-01-22T11:50:30.223Z,86.81
2023-01-22T11:53:18.237Z,86.92
2023-01-22T11:56:31.201Z,86.65
2023-01-22T11:59:17.151Z,86.96
2023-01-22T12:01:56.204Z,87.08
2023-01-22T12:04:46.285Z,86.99
2023-01-22T12:07:52.329Z,87.10
2023-01-22T12:10:41.435Z,86.85
2023-01-22T12:13:30.711Z,86.76
2023-01-22T12:16:28.301Z,86.55
2023-01-22T12:19:01.846Z,86.62
2023-01-22T12:21:50.155Z,86.76
2023-01-22T12:24:31.840Z,86.76
2023-01-22T12:27:12.883Z,86.81
2023-01-22T12:29:49.436Z,86.78
2023-01-22T12:32:19.113Z,86.99
2023-01-22T12:34:56.073Z,86.84
2023-01-22T12:37:37.645Z,86.93
2023-01-22T12:40:40.307Z,87.00
2023-01-22T12:43:08.070Z,86.97
2023-01-22T12:46:02.042Z,87.02
2023-01-22T12:48:48.559Z,86.56
2023-01-22T12:51:39.693Z,86.93
2023-01-22T12:54:19.349Z,86.76
2023-01-22T12:56:48.650Z,86.92
2023-01-22T12:59:34.946Z,86.69
2023-01-22T13:02:20.467Z,86.65
2023-01-22T13:04:48.848Z,86.96
2023-01-22T13:07:28.622Z,86.98
2023-01-22T13:10:21.628Z,87.00
2023-01-22T13:12:52.162Z,87.06
2023-01-22T13:15:26.893Z,86.93
2023-01-22T13:18:07.687Z,86.79
2023-01-22T13:20:46.542Z,86.90
2023-01-22T13:23:15.761Z,86.82
2023-01-22T13:25:42.977Z,86.66
2023-01-22T13:28:17.618Z,86.80
2023-01-22T13:30:59.468Z,86.89
2023-01-22T13:33:27.541Z,86.79
2023-01-22T13:35:56.947Z,86.98
2023-01-22T13:38:32.718Z,86.65
2023-01-22T13:41:12.683Z,86.57
2023-01-22T13:43:42.851Z,86.87
2023-01-22T13:46:14.863Z,86.83
2023-01-22T13:48:42.814Z,87.11
2023-01-22T13:51:18.015Z,87.03
2023-01-22T13:53:51.991Z,86.91
2023-01-22T13:56:22.354Z,86.74
2023-01-22T13:58:50.165Z,86.95
2023-01-22T14:01:30.120Z,87.08
2023-01-22T14:03:59.375Z,86.94
2023-01-22T14:06:27.163Z,86.92
2023-01-22T14:08:56.856Z,87.16
2023-01-22T14:11:24.281Z,87.00
2023-01-22T14:13:53.432Z,86.80
2023-01-22T14:16:20.990Z,86.97
2023-01-22T14:18:48.652Z,86.84
2023-01-22T14:21:16.187Z,87.03
2023-01-22T14:23:44.042Z,87.03
2023-01-22T14:26:12.051Z,87.01
2023-01-22T14:28:39.522Z,87.06
2023-01-22T14:31:07.832Z,86.66
2023-01-22T14:33:35.486Z,86.86
2023-01-22T14:36:03.195Z,86.69
2023-01-22T14:38:31.201Z,86.80
2023-01-22T14:41:03.438Z,86.95
2023-01-22T14:43:30.686Z,87.03
2023-01-22T14:45:58.825Z,87.15
2023-01-22T14:48:26.728Z,86.78
2023-01-22T14:50:54.072Z,87.00
2023-01-22T14:53:21.892Z,86.76
2023-01-22T14:55:49.787Z,87.17
2023-01-22T14:58:16.995Z,87.08
2023-01-22T15:00:44.720Z,87.16
2023-01-22T15:03:12.518Z,87.04
2023-01-22T15:05:40.416Z,87.14
2023-01-22T15:08:08.064Z,87.34
2023-01-22T15:10:36.533Z,87.03
2023-01-22T15:13:04.040Z,86.73
2023-01-22T15:15:32.085Z,86.85
2023-01-22T15:17:59.640Z,86.74
2023-01-22T15:20:29.216Z,87.00
2023-01-22T15:22:56.787Z,87.02
2023-01-22T15:25:24.952Z,86.99
2023-01-22T15:27:53.133Z,86.87
2023-01-22T15:30:21.241Z,86.68
2023-01-22T15:32:49.010Z,87.02
2023-01-22T15:35:16.733Z,87.22
2023-01-22T15:37:44.314Z,87.10
2023-01-22T15:40:12.507Z,87.24
2023-01-22T15:42:40.696Z,87.00
2023-01-22T15:45:09.261Z,87.13
2023-01-22T15:47:36.989Z,87.02
2023-01-22T15:50:05.516Z,86.94
2023-01-22T15:52:33.813Z,86.87
2023-01-22T15:55:02.197Z,87.01
2023-01-22T15:57:29.598Z,87.20
2023-01-22T15:59:57.055Z,87.07
2023-01-22T16:02:27.582Z,87.36
2023-01-22T16:04:55.291Z,87.18
2023-01-22T16:07:23.085Z,86.93
2023-01-22T16:09:50.625Z,86.95
2023-01-22T16:12:18.373Z,87.16
2023-01-22T16:14:46.086Z,87.14
2023-01-22T16:17:14.516Z,87.08
2023-01-22T16:19:42.201Z,86.80
2023-01-22T16:22:09.724Z,86.97
2023-01-22T16:24:37.226Z,86.98
2023-01-22T16:27:04.958Z,87.04
2023-01-22T16:29:32.534Z,87.08
2023-01-22T16:32:00.282Z,87.09
2023-01-22T16:34:27.829Z,87.12
2023-01-22T16:36:55.746Z,87.05
2023-01-22T16:39:24.682Z,86.91
2023-01-22T16:41:52.371Z,86.99
2023-01-22T16:44:33.420Z,87.37
2023-01-22T16:47:01.457Z,87.09
2023-01-22T16:49:32.134Z,87.03
2023-01-22T16:52:20.828Z,87.27
2023-01-22T16:54:50.446Z,87.05
2023-01-22T16:57:19.810Z,87.31
2023-01-22T16:59:47.719Z,87.31
2023-01-22T17:02:19.003Z,87.13
2023-01-22T17:04:46.889Z,87.19
2023-01-22T17:07:31.544Z,87.27
2023-01-22T17:10:00.640Z,87.13
2023-01-22T17:12:28.810Z,86.86
2023-01-22T17:14:56.170Z,86.95
2023-01-22T17:17:26.003Z,87.08
2023-01-22T17:19:53.212Z,87.10
2023-01-22T17:22:20.570Z,87.22
2023-01-22T17:24:48.284Z,86.96
2023-01-22T17:27:19.828Z,86.96
2023-01-22T17:29:47.628Z,86.83
2023-01-22T17:32:15.842Z,86.99
2023-01-22T17:34:43.244Z,87.19
2023-01-22T17:37:11.250Z,87.25
2023-01-22T17:39:40.774Z,87.34
2023-01-22T17:42:08.537Z,87.09
2023-01-22T17:44:35.759Z,87.16
2023-01-22T17:47:05.717Z,87.00
2023-01-22T17:49:34.553Z,87.13
2023-01-22T17:52:03.974Z,87.07
2023-01-22T17:54:32.053Z,87.30
2023-01-22T17:57:00.870Z,87.23
2023-01-22T17:59:28.327Z,87.28
2023-01-22T18:01:57.670Z,87.27
2023-01-22T18:04:44.477Z,87.47
2023-01-22T18:07:32.584Z,87.72
2023-01-22T18:10:29.643Z,87.47
2023-01-22T18:13:25.496Z,87.45
2023-01-22T18:16:23.548Z,87.72
2023-01-22T18:19:13.141Z,87.30
2023-01-22T18:22:11.848Z,87.35
2023-01-22T18:24:56.551Z,87.24
2023-01-22T18:27:49.380Z,87.50
2023-01-22T18:30:42.877Z,87.36
2023-01-22T18:33:42.093Z,87.64
2023-01-22T18:36:37.996Z,87.68
2023-01-22T18:39:29.454Z,87.42
2023-01-22T18:42:07.050Z,87.59
2023-01-22T18:44:35.730Z,87.81
2023-01-22T18:47:07.144Z,87.77
2023-01-22T18:49:34.905Z,87.46
2023-01-22T18:52:02.911Z,87.73
2023-01-22T18:54:30.242Z,88.02
2023-01-22T18:57:00.859Z,87.73
2023-01-22T18:59:28.866Z,87.67
2023-01-22T19:01:57.216Z,87.75
2023-01-22T19:04:25.193Z,87.81
2023-01-22T19:06:54.344Z,87.88
2023-01-22T19:09:21.823Z,87.50
2023-01-22T19:11:52.515Z,87.60
2023-01-22T19:14:20.942Z,87.90
2023-01-22T19:16:52.953Z,87.75
2023-01-22T19:19:22.690Z,87.98
2023-01-22T19:21:53.146Z,87.75
2023-01-22T19:24:24.648Z,87.75
2023-01-22T19:26:54.372Z,87.98
2023-01-22T19:29:23.438Z,87.86
2023-01-22T19:31:52.585Z,87.84
2023-01-22T19:34:25.109Z,87.69
2023-01-22T19:37:01.210Z,87.71
2023-01-22T19:39:29.838Z,87.96
2023-01-22T19:42:01.427Z,87.95
2023-01-22T19:44:31.397Z,87.87
2023-01-22T19:47:00.339Z,87.64
2023-01-22T19:49:31.147Z,87.78
2023-01-22T19:51:59.163Z,87.96
2023-01-22T19:54:26.939Z,87.93
2023-01-22T19:56:54.263Z,87.91
2023-01-22T19:59:23.600Z,88.22
2023-01-22T20:01:51.777Z,87.93
2023-01-22T20:04:29.856Z,88.01
2023-01-22T20:07:00.776Z,88.23
2023-01-22T20:09:29.920Z,88.24
2023-01-22T20:11:58.482Z,88.12
2023-01-22T20:14:30.071Z,88.15
2023-01-22T20:17:00.158Z,88.01
2023-01-22T20:19:28.828Z,88.11
2023-01-22T20:21:56.879Z,88.48
2023-01-22T20:24:24.689Z,88.01
2023-01-22T20:26:56.540Z,87.94
2023-01-22T20:29:24.628Z,87.81
2023-01-22T20:31:54.168Z,87.90
2023-01-22T20:34:22.051Z,87.90
2023-01-22T20:36:49.546Z,88.08
2023-01-22T20:39:19.579Z,88.06
2023-01-22T20:41:47.296Z,88.17
2023-01-22T20:44:15.050Z,88.05
2023-01-22T20:46:46.636Z,87.84
2023-01-22T20:49:14.205Z,88.02
2023-01-22T20:51:42.286Z,88.03
2023-01-22T20:54:10.655Z,87.99
2023-01-22T20:56:38.714Z,88.23
2023-01-22T20:59:12.388Z,87.84
2023-01-22T21:01:40.477Z,87.88
2023-01-22T21:04:08.160Z,88.18
2023-01-22T21:06:39.410Z,88.44
2023-01-22T21:09:08.332Z,88.50
2023-01-22T21:11:38.962Z,88.04
2023-01-22T21:14:07.913Z,88.27
2023-01-22T21:16:37.685Z,88.23
2023-01-22T21:19:11.236Z,88.35
2023-01-22T21:21:38.737Z,88.34
2023-01-22T21:24:06.666Z,88.10
2023-01-22T21:26:34.782Z,88.25
2023-01-22T21:29:05.381Z,88.38
2023-01-22T21:31:36.037Z,88.11
2023-01-22T21:34:05.698Z,88.06
2023-01-22T21:36:35.744Z,88.11
2023-01-22T21:39:06.149Z,88.19
2023-01-22T21:41:33.755Z,88.33
2023-01-22T21:44:20.110Z,88.39
2023-01-22T21:46:48.156Z,88.12
2023-01-22T21:49:24.324Z,88.29
2023-01-22T21:51:55.213Z,88.45
2023-01-22T21:54:37.665Z,88.43
2023-01-22T21:57:06.518Z,88.81
2023-01-22T21:59:35.788Z,88.47
2023-01-22T22:02:04.983Z,88.56
2023-01-22T22:04:33.522Z,88.61
2023-01-22T22:07:03.431Z,88.41
2023-01-22T22:09:30.824Z,88.53
2023-01-22T22:12:02.429Z,88.60
2023-01-22T22:14:30.223Z,88.11
2023-01-22T22:16:57.861Z,88.45
2023-01-22T22:19:26.050Z,88.55
2023-01-22T22:21:53.418Z,88.45
2023-01-22T22:24:21.538Z,88.71
2023-01-22T22:26:52.313Z,88.74
2023-01-22T22:29:19.808Z,88.75
2023-01-22T22:31:47.379Z,88.19
2023-01-22T22:34:15.011Z,88.37
2023-01-22T22:36:42.573Z,88.29
2023-01-22T22:39:10.215Z,88.40
2023-01-22T22:41:38.958Z,88.49
2023-01-22T22:44:07.396Z,88.22
2023-01-22T22:46:37.785Z,88.32
2023-01-22T22:49:05.891Z,88.22
2023-01-22T22:51:35.669Z,88.51
2023-01-22T22:54:11.420Z,88.70
2023-01-22T22:56:39.244Z,88.42
2023-01-22T22:59:07.362Z,88.41
2023-01-22T23:01:37.570Z,88.26
2023-01-22T23:04:06.872Z,88.57
2023-01-22T23:06:35.585Z,88.31
2023-01-22T23:09:14.635Z,88.32
2023-01-22T23:11:42.050Z,88.72
2023-01-22T23:14:10.424Z,88.51
2023-01-22T23:16:41.843Z,88.33
2023-01-22T23:19:15.808Z,88.33
2023-01-22T23:21:45.600Z,88.26
2023-01-22T23:24:14.105Z,88.45
2023-01-22T23:26:43.127Z,88.42
2023-01-22T23:29:15.404Z,88.47
2023-01-22T23:31:43.212Z,88.54
2023-01-22T23:34:14.064Z,88.84
2023-01-22T23:36:45.156Z,88.59
2023-01-22T23:39:14.743Z,88.99
2023-01-22T23:41:42.654Z,89.03
2023-01-22T23:44:10.470Z,89.01
2023-01-22T23:46:38.439Z,89.01
2023-01-22T23:49:06.165Z,89.00
2023-01-22T23:51:33.947Z,88.35
2023-01-22T23:54:01.237Z,88.56
2023-01-22T23:56:31.291Z,88.39
2023-01-22T23:58:59.848Z,88.60
